<?xml version="1.0" encoding="UTF-8" standalone="no" ?>
<gpx xmlns="http://www.topografix.com/GPX/1/1" xmlns:xsi="http://www.w3.org/2001/XMLSchema-instance" xsi:schemaLocation="http://www.topografix.com/GPX/1/1 http://www.topografix.com/GPX/1/1/gpx.xsd" version="1.1" creator="VisuGPX - https://www.visugpx.com">
  <metadata>
    <name>10km lausanne - 20180429</name>
    <desc><![CDATA[Course de 10km, lors des 20km de Lausanne 2018]]></desc>
  </metadata>
  <trk>
    <name><![CDATA[10km lausanne - 20180429_1]]></name>
    <trkseg>
      <trkpt lat="46.5152" lon="6.60936">
        <ele>424</ele>
        <time>2018-04-29T11:07:03.000Z</time>
      </trkpt>
      <trkpt lat="46.51508" lon="6.60965">
        <ele>438</ele>
        <time>2018-04-29T11:07:10.000Z</time>
      </trkpt>
      <trkpt lat="46.51496" lon="6.60988">
        <ele>447</ele>
        <time>2018-04-29T11:07:15.000Z</time>
      </trkpt>
      <trkpt lat="46.51485" lon="6.61017">
        <ele>445</ele>
        <time>2018-04-29T11:07:21.000Z</time>
      </trkpt>
      <trkpt lat="46.51473" lon="6.61046">
        <ele>444</ele>
        <time>2018-04-29T11:07:26.000Z</time>
      </trkpt>
      <trkpt lat="46.5146" lon="6.61073">
        <ele>443</ele>
        <time>2018-04-29T11:07:32.000Z</time>
      </trkpt>
      <trkpt lat="46.51445" lon="6.61095">
        <ele>445</ele>
        <time>2018-04-29T11:07:38.000Z</time>
      </trkpt>
      <trkpt lat="46.51431" lon="6.6112">
        <ele>445</ele>
        <time>2018-04-29T11:07:44.000Z</time>
      </trkpt>
      <trkpt lat="46.51417" lon="6.61146">
        <ele>443</ele>
        <time>2018-04-29T11:07:50.000Z</time>
      </trkpt>
      <trkpt lat="46.514" lon="6.61167">
        <ele>442</ele>
        <time>2018-04-29T11:07:56.000Z</time>
      </trkpt>
      <trkpt lat="46.51386" lon="6.61194">
        <ele>438</ele>
        <time>2018-04-29T11:08:02.000Z</time>
      </trkpt>
      <trkpt lat="46.51371" lon="6.61218">
        <ele>435</ele>
        <time>2018-04-29T11:08:08.000Z</time>
      </trkpt>
      <trkpt lat="46.51356" lon="6.61241">
        <ele>432</ele>
        <time>2018-04-29T11:08:14.000Z</time>
      </trkpt>
      <trkpt lat="46.51341" lon="6.61266">
        <ele>433</ele>
        <time>2018-04-29T11:08:20.000Z</time>
      </trkpt>
      <trkpt lat="46.51327" lon="6.6129">
        <ele>432</ele>
        <time>2018-04-29T11:08:26.000Z</time>
      </trkpt>
      <trkpt lat="46.51315" lon="6.61316">
        <ele>432</ele>
        <time>2018-04-29T11:08:32.000Z</time>
      </trkpt>
      <trkpt lat="46.51304" lon="6.61343">
        <ele>431</ele>
        <time>2018-04-29T11:08:38.000Z</time>
      </trkpt>
      <trkpt lat="46.51296" lon="6.61373">
        <ele>432</ele>
        <time>2018-04-29T11:08:44.000Z</time>
      </trkpt>
      <trkpt lat="46.51289" lon="6.61405">
        <ele>433</ele>
        <time>2018-04-29T11:08:51.000Z</time>
      </trkpt>
      <trkpt lat="46.51279" lon="6.61436">
        <ele>433</ele>
        <time>2018-04-29T11:08:58.000Z</time>
      </trkpt>
      <trkpt lat="46.51271" lon="6.61468">
        <ele>433</ele>
        <time>2018-04-29T11:09:05.000Z</time>
      </trkpt>
      <trkpt lat="46.51261" lon="6.61495">
        <ele>434</ele>
        <time>2018-04-29T11:09:11.000Z</time>
      </trkpt>
      <trkpt lat="46.5125" lon="6.61525">
        <ele>433</ele>
        <time>2018-04-29T11:09:18.000Z</time>
      </trkpt>
      <trkpt lat="46.51241" lon="6.61553">
        <ele>433</ele>
        <time>2018-04-29T11:09:24.000Z</time>
      </trkpt>
      <trkpt lat="46.51229" lon="6.61578">
        <ele>432</ele>
        <time>2018-04-29T11:09:30.000Z</time>
      </trkpt>
      <trkpt lat="46.51219" lon="6.61606">
        <ele>430</ele>
        <time>2018-04-29T11:09:36.000Z</time>
      </trkpt>
      <trkpt lat="46.51207" lon="6.61633">
        <ele>429</ele>
        <time>2018-04-29T11:09:42.000Z</time>
      </trkpt>
      <trkpt lat="46.51193" lon="6.61662">
        <ele>430</ele>
        <time>2018-04-29T11:09:49.000Z</time>
      </trkpt>
      <trkpt lat="46.51182" lon="6.61691">
        <ele>431</ele>
        <time>2018-04-29T11:09:56.000Z</time>
      </trkpt>
      <trkpt lat="46.51164" lon="6.6171">
        <ele>430</ele>
        <time>2018-04-29T11:10:02.000Z</time>
      </trkpt>
      <trkpt lat="46.51152" lon="6.61733">
        <ele>429</ele>
        <time>2018-04-29T11:10:08.000Z</time>
      </trkpt>
      <trkpt lat="46.51138" lon="6.61757">
        <ele>428</ele>
        <time>2018-04-29T11:10:14.000Z</time>
      </trkpt>
      <trkpt lat="46.51125" lon="6.61784">
        <ele>427</ele>
        <time>2018-04-29T11:10:21.000Z</time>
      </trkpt>
      <trkpt lat="46.51109" lon="6.61808">
        <ele>428</ele>
        <time>2018-04-29T11:10:28.000Z</time>
      </trkpt>
      <trkpt lat="46.51093" lon="6.6183">
        <ele>429</ele>
        <time>2018-04-29T11:10:35.000Z</time>
      </trkpt>
      <trkpt lat="46.51076" lon="6.61854">
        <ele>429</ele>
        <time>2018-04-29T11:10:42.000Z</time>
      </trkpt>
      <trkpt lat="46.51059" lon="6.61871">
        <ele>425</ele>
        <time>2018-04-29T11:10:50.000Z</time>
      </trkpt>
      <trkpt lat="46.51044" lon="6.61897">
        <ele>425</ele>
        <time>2018-04-29T11:10:57.000Z</time>
      </trkpt>
      <trkpt lat="46.51031" lon="6.61927">
        <ele>423</ele>
        <time>2018-04-29T11:11:04.000Z</time>
      </trkpt>
      <trkpt lat="46.51019" lon="6.61954">
        <ele>422</ele>
        <time>2018-04-29T11:11:10.000Z</time>
      </trkpt>
      <trkpt lat="46.51004" lon="6.61978">
        <ele>419</ele>
        <time>2018-04-29T11:11:16.000Z</time>
      </trkpt>
      <trkpt lat="46.50987" lon="6.62004">
        <ele>419</ele>
        <time>2018-04-29T11:11:22.000Z</time>
      </trkpt>
      <trkpt lat="46.50973" lon="6.62027">
        <ele>419</ele>
        <time>2018-04-29T11:11:28.000Z</time>
      </trkpt>
      <trkpt lat="46.50956" lon="6.62048">
        <ele>419</ele>
        <time>2018-04-29T11:11:35.000Z</time>
      </trkpt>
      <trkpt lat="46.50941" lon="6.62068">
        <ele>421</ele>
        <time>2018-04-29T11:11:41.000Z</time>
      </trkpt>
      <trkpt lat="46.50925" lon="6.62089">
        <ele>423</ele>
        <time>2018-04-29T11:11:48.000Z</time>
      </trkpt>
      <trkpt lat="46.50911" lon="6.62114">
        <ele>425</ele>
        <time>2018-04-29T11:11:54.000Z</time>
      </trkpt>
      <trkpt lat="46.50897" lon="6.62139">
        <ele>426</ele>
        <time>2018-04-29T11:12:01.000Z</time>
      </trkpt>
      <trkpt lat="46.50885" lon="6.62167">
        <ele>427</ele>
        <time>2018-04-29T11:12:08.000Z</time>
      </trkpt>
      <trkpt lat="46.50872" lon="6.62194">
        <ele>429</ele>
        <time>2018-04-29T11:12:14.000Z</time>
      </trkpt>
      <trkpt lat="46.50865" lon="6.62223">
        <ele>430</ele>
        <time>2018-04-29T11:12:21.000Z</time>
      </trkpt>
      <trkpt lat="46.50856" lon="6.62253">
        <ele>430</ele>
        <time>2018-04-29T11:12:28.000Z</time>
      </trkpt>
      <trkpt lat="46.50845" lon="6.62283">
        <ele>428</ele>
        <time>2018-04-29T11:12:35.000Z</time>
      </trkpt>
      <trkpt lat="46.50838" lon="6.62312">
        <ele>427</ele>
        <time>2018-04-29T11:12:41.000Z</time>
      </trkpt>
      <trkpt lat="46.5083" lon="6.6234">
        <ele>427</ele>
        <time>2018-04-29T11:12:48.000Z</time>
      </trkpt>
      <trkpt lat="46.50821" lon="6.62368">
        <ele>426</ele>
        <time>2018-04-29T11:12:55.000Z</time>
      </trkpt>
      <trkpt lat="46.50808" lon="6.62397">
        <ele>425</ele>
        <time>2018-04-29T11:13:02.000Z</time>
      </trkpt>
      <trkpt lat="46.50797" lon="6.62425">
        <ele>423</ele>
        <time>2018-04-29T11:13:09.000Z</time>
      </trkpt>
      <trkpt lat="46.50788" lon="6.62452">
        <ele>422</ele>
        <time>2018-04-29T11:13:16.000Z</time>
      </trkpt>
      <trkpt lat="46.50776" lon="6.62481">
        <ele>422</ele>
        <time>2018-04-29T11:13:23.000Z</time>
      </trkpt>
      <trkpt lat="46.50763" lon="6.62508">
        <ele>421</ele>
        <time>2018-04-29T11:13:30.000Z</time>
      </trkpt>
      <trkpt lat="46.5075" lon="6.62537">
        <ele>421</ele>
        <time>2018-04-29T11:13:37.000Z</time>
      </trkpt>
      <trkpt lat="46.5074" lon="6.62556">
        <ele>422</ele>
        <time>2018-04-29T11:13:44.000Z</time>
      </trkpt>
      <trkpt lat="46.50727" lon="6.62576">
        <ele>422</ele>
        <time>2018-04-29T11:13:48.000Z</time>
      </trkpt>
      <trkpt lat="46.50716" lon="6.62602">
        <ele>421</ele>
        <time>2018-04-29T11:13:54.000Z</time>
      </trkpt>
      <trkpt lat="46.50702" lon="6.62629">
        <ele>420</ele>
        <time>2018-04-29T11:14:01.000Z</time>
      </trkpt>
      <trkpt lat="46.5069" lon="6.62655">
        <ele>421</ele>
        <time>2018-04-29T11:14:08.000Z</time>
      </trkpt>
      <trkpt lat="46.50691" lon="6.62688">
        <ele>423</ele>
        <time>2018-04-29T11:14:16.000Z</time>
      </trkpt>
      <trkpt lat="46.50702" lon="6.62715">
        <ele>424</ele>
        <time>2018-04-29T11:14:24.000Z</time>
      </trkpt>
      <trkpt lat="46.50707" lon="6.62736">
        <ele>424</ele>
        <time>2018-04-29T11:14:30.000Z</time>
      </trkpt>
      <trkpt lat="46.50708" lon="6.62754">
        <ele>424</ele>
        <time>2018-04-29T11:14:36.000Z</time>
      </trkpt>
      <trkpt lat="46.50706" lon="6.62763">
        <ele>423</ele>
        <time>2018-04-29T11:14:41.000Z</time>
      </trkpt>
      <trkpt lat="46.50708" lon="6.62768">
        <ele>423</ele>
        <time>2018-04-29T11:14:46.000Z</time>
      </trkpt>
      <trkpt lat="46.50708" lon="6.62818">
        <ele>423</ele>
        <time>2018-04-29T11:14:48.000Z</time>
      </trkpt>
      <trkpt lat="46.50703" lon="6.62836">
        <ele>425</ele>
        <time>2018-04-29T11:14:54.000Z</time>
      </trkpt>
      <trkpt lat="46.50697" lon="6.62861">
        <ele>422</ele>
        <time>2018-04-29T11:14:58.000Z</time>
      </trkpt>
      <trkpt lat="46.50695" lon="6.62889">
        <ele>418</ele>
        <time>2018-04-29T11:15:03.000Z</time>
      </trkpt>
      <trkpt lat="46.50692" lon="6.62922">
        <ele>416</ele>
        <time>2018-04-29T11:15:10.000Z</time>
      </trkpt>
      <trkpt lat="46.50692" lon="6.62956">
        <ele>416</ele>
        <time>2018-04-29T11:15:17.000Z</time>
      </trkpt>
      <trkpt lat="46.50694" lon="6.6299">
        <ele>416</ele>
        <time>2018-04-29T11:15:24.000Z</time>
      </trkpt>
      <trkpt lat="46.50694" lon="6.63017">
        <ele>415</ele>
        <time>2018-04-29T11:15:31.000Z</time>
      </trkpt>
      <trkpt lat="46.50701" lon="6.63047">
        <ele>416</ele>
        <time>2018-04-29T11:15:37.000Z</time>
      </trkpt>
      <trkpt lat="46.50708" lon="6.63075">
        <ele>414</ele>
        <time>2018-04-29T11:15:43.000Z</time>
      </trkpt>
      <trkpt lat="46.50714" lon="6.63105">
        <ele>416</ele>
        <time>2018-04-29T11:15:50.000Z</time>
      </trkpt>
      <trkpt lat="46.50719" lon="6.63136">
        <ele>421</ele>
        <time>2018-04-29T11:15:58.000Z</time>
      </trkpt>
      <trkpt lat="46.50722" lon="6.63167">
        <ele>423</ele>
        <time>2018-04-29T11:16:05.000Z</time>
      </trkpt>
      <trkpt lat="46.50727" lon="6.63197">
        <ele>422</ele>
        <time>2018-04-29T11:16:11.000Z</time>
      </trkpt>
      <trkpt lat="46.50727" lon="6.63229">
        <ele>423</ele>
        <time>2018-04-29T11:16:18.000Z</time>
      </trkpt>
      <trkpt lat="46.50729" lon="6.6326">
        <ele>421</ele>
        <time>2018-04-29T11:16:25.000Z</time>
      </trkpt>
      <trkpt lat="46.50727" lon="6.6329">
        <ele>420</ele>
        <time>2018-04-29T11:16:32.000Z</time>
      </trkpt>
      <trkpt lat="46.50725" lon="6.63323">
        <ele>418</ele>
        <time>2018-04-29T11:16:39.000Z</time>
      </trkpt>
      <trkpt lat="46.50719" lon="6.63355">
        <ele>418</ele>
        <time>2018-04-29T11:16:46.000Z</time>
      </trkpt>
      <trkpt lat="46.50709" lon="6.63387">
        <ele>420</ele>
        <time>2018-04-29T11:16:53.000Z</time>
      </trkpt>
      <trkpt lat="46.50702" lon="6.63417">
        <ele>419</ele>
        <time>2018-04-29T11:17:00.000Z</time>
      </trkpt>
      <trkpt lat="46.50695" lon="6.63445">
        <ele>420</ele>
        <time>2018-04-29T11:17:07.000Z</time>
      </trkpt>
      <trkpt lat="46.50686" lon="6.63474">
        <ele>422</ele>
        <time>2018-04-29T11:17:14.000Z</time>
      </trkpt>
      <trkpt lat="46.50684" lon="6.63491">
        <ele>421</ele>
        <time>2018-04-29T11:17:18.000Z</time>
      </trkpt>
      <trkpt lat="46.50681" lon="6.63503">
        <ele>421</ele>
        <time>2018-04-29T11:17:21.000Z</time>
      </trkpt>
      <trkpt lat="46.50672" lon="6.63532">
        <ele>421</ele>
        <time>2018-04-29T11:17:28.000Z</time>
      </trkpt>
      <trkpt lat="46.50664" lon="6.63562">
        <ele>421</ele>
        <time>2018-04-29T11:17:35.000Z</time>
      </trkpt>
      <trkpt lat="46.50657" lon="6.63595">
        <ele>421</ele>
        <time>2018-04-29T11:17:43.000Z</time>
      </trkpt>
      <trkpt lat="46.50648" lon="6.63622">
        <ele>421</ele>
        <time>2018-04-29T11:17:50.000Z</time>
      </trkpt>
      <trkpt lat="46.50642" lon="6.63654">
        <ele>421</ele>
        <time>2018-04-29T11:17:57.000Z</time>
      </trkpt>
      <trkpt lat="46.50634" lon="6.63682">
        <ele>418</ele>
        <time>2018-04-29T11:18:04.000Z</time>
      </trkpt>
      <trkpt lat="46.50625" lon="6.63711">
        <ele>419</ele>
        <time>2018-04-29T11:18:11.000Z</time>
      </trkpt>
      <trkpt lat="46.50618" lon="6.6374">
        <ele>418</ele>
        <time>2018-04-29T11:18:18.000Z</time>
      </trkpt>
      <trkpt lat="46.50611" lon="6.63768">
        <ele>418</ele>
        <time>2018-04-29T11:18:25.000Z</time>
      </trkpt>
      <trkpt lat="46.50605" lon="6.63799">
        <ele>418</ele>
        <time>2018-04-29T11:18:32.000Z</time>
      </trkpt>
      <trkpt lat="46.50599" lon="6.63829">
        <ele>418</ele>
        <time>2018-04-29T11:18:39.000Z</time>
      </trkpt>
      <trkpt lat="46.50591" lon="6.63859">
        <ele>416</ele>
        <time>2018-04-29T11:18:46.000Z</time>
      </trkpt>
      <trkpt lat="46.50585" lon="6.63886">
        <ele>416</ele>
        <time>2018-04-29T11:18:53.000Z</time>
      </trkpt>
      <trkpt lat="46.50578" lon="6.63914">
        <ele>418</ele>
        <time>2018-04-29T11:19:00.000Z</time>
      </trkpt>
      <trkpt lat="46.5057" lon="6.63941">
        <ele>419</ele>
        <time>2018-04-29T11:19:06.000Z</time>
      </trkpt>
      <trkpt lat="46.5056" lon="6.63967">
        <ele>420</ele>
        <time>2018-04-29T11:19:13.000Z</time>
      </trkpt>
      <trkpt lat="46.50553" lon="6.63997">
        <ele>420</ele>
        <time>2018-04-29T11:19:20.000Z</time>
      </trkpt>
      <trkpt lat="46.50542" lon="6.64025">
        <ele>421</ele>
        <time>2018-04-29T11:19:27.000Z</time>
      </trkpt>
      <trkpt lat="46.50533" lon="6.64052">
        <ele>422</ele>
        <time>2018-04-29T11:19:34.000Z</time>
      </trkpt>
      <trkpt lat="46.50526" lon="6.64084">
        <ele>421</ele>
        <time>2018-04-29T11:19:41.000Z</time>
      </trkpt>
      <trkpt lat="46.50525" lon="6.64119">
        <ele>422</ele>
        <time>2018-04-29T11:19:48.000Z</time>
      </trkpt>
      <trkpt lat="46.50528" lon="6.6415">
        <ele>422</ele>
        <time>2018-04-29T11:19:55.000Z</time>
      </trkpt>
      <trkpt lat="46.50535" lon="6.64171">
        <ele>422</ele>
        <time>2018-04-29T11:20:02.000Z</time>
      </trkpt>
      <trkpt lat="46.50541" lon="6.64187">
        <ele>421</ele>
        <time>2018-04-29T11:20:08.000Z</time>
      </trkpt>
      <trkpt lat="46.50549" lon="6.64196">
        <ele>422</ele>
        <time>2018-04-29T11:20:12.000Z</time>
      </trkpt>
      <trkpt lat="46.50553" lon="6.64199">
        <ele>422</ele>
        <time>2018-04-29T11:20:16.000Z</time>
      </trkpt>
      <trkpt lat="46.50557" lon="6.64201">
        <ele>422</ele>
        <time>2018-04-29T11:20:18.000Z</time>
      </trkpt>
      <trkpt lat="46.50566" lon="6.64203">
        <ele>422</ele>
        <time>2018-04-29T11:20:20.000Z</time>
      </trkpt>
      <trkpt lat="46.50569" lon="6.64204">
        <ele>422</ele>
        <time>2018-04-29T11:20:22.000Z</time>
      </trkpt>
      <trkpt lat="46.50575" lon="6.64205">
        <ele>422</ele>
        <time>2018-04-29T11:20:24.000Z</time>
      </trkpt>
      <trkpt lat="46.50601" lon="6.64215">
        <ele>422</ele>
        <time>2018-04-29T11:20:27.000Z</time>
      </trkpt>
      <trkpt lat="46.50625" lon="6.64231">
        <ele>419</ele>
        <time>2018-04-29T11:20:35.000Z</time>
      </trkpt>
      <trkpt lat="46.50643" lon="6.64244">
        <ele>421</ele>
        <time>2018-04-29T11:20:42.000Z</time>
      </trkpt>
      <trkpt lat="46.50654" lon="6.6426">
        <ele>424</ele>
        <time>2018-04-29T11:20:52.000Z</time>
      </trkpt>
      <trkpt lat="46.50657" lon="6.64277">
        <ele>426</ele>
        <time>2018-04-29T11:20:58.000Z</time>
      </trkpt>
      <trkpt lat="46.50658" lon="6.643">
        <ele>428</ele>
        <time>2018-04-29T11:21:03.000Z</time>
      </trkpt>
      <trkpt lat="46.50654" lon="6.64322">
        <ele>432</ele>
        <time>2018-04-29T11:21:11.000Z</time>
      </trkpt>
      <trkpt lat="46.5065" lon="6.64345">
        <ele>434</ele>
        <time>2018-04-29T11:21:17.000Z</time>
      </trkpt>
      <trkpt lat="46.50647" lon="6.6436">
        <ele>437</ele>
        <time>2018-04-29T11:21:21.000Z</time>
      </trkpt>
      <trkpt lat="46.50647" lon="6.64371">
        <ele>436</ele>
        <time>2018-04-29T11:21:24.000Z</time>
      </trkpt>
      <trkpt lat="46.50647" lon="6.64377">
        <ele>436</ele>
        <time>2018-04-29T11:21:26.000Z</time>
      </trkpt>
      <trkpt lat="46.50652" lon="6.64401">
        <ele>436</ele>
        <time>2018-04-29T11:21:28.000Z</time>
      </trkpt>
      <trkpt lat="46.50656" lon="6.64422">
        <ele>437</ele>
        <time>2018-04-29T11:21:33.000Z</time>
      </trkpt>
      <trkpt lat="46.50662" lon="6.64453">
        <ele>438</ele>
        <time>2018-04-29T11:21:38.000Z</time>
      </trkpt>
      <trkpt lat="46.50665" lon="6.64477">
        <ele>439</ele>
        <time>2018-04-29T11:21:45.000Z</time>
      </trkpt>
      <trkpt lat="46.50674" lon="6.64428">
        <ele>430</ele>
        <time>2018-04-29T11:21:56.000Z</time>
      </trkpt>
      <trkpt lat="46.50679" lon="6.64396">
        <ele>429</ele>
        <time>2018-04-29T11:22:04.000Z</time>
      </trkpt>
      <trkpt lat="46.50678" lon="6.64365">
        <ele>429</ele>
        <time>2018-04-29T11:22:12.000Z</time>
      </trkpt>
      <trkpt lat="46.50678" lon="6.64334">
        <ele>428</ele>
        <time>2018-04-29T11:22:19.000Z</time>
      </trkpt>
      <trkpt lat="46.50678" lon="6.64304">
        <ele>426</ele>
        <time>2018-04-29T11:22:26.000Z</time>
      </trkpt>
      <trkpt lat="46.50679" lon="6.64274">
        <ele>425</ele>
        <time>2018-04-29T11:22:33.000Z</time>
      </trkpt>
      <trkpt lat="46.50679" lon="6.64242">
        <ele>424</ele>
        <time>2018-04-29T11:22:40.000Z</time>
      </trkpt>
      <trkpt lat="46.50679" lon="6.6421">
        <ele>424</ele>
        <time>2018-04-29T11:22:47.000Z</time>
      </trkpt>
      <trkpt lat="46.5068" lon="6.64179">
        <ele>425</ele>
        <time>2018-04-29T11:22:55.000Z</time>
      </trkpt>
      <trkpt lat="46.50682" lon="6.64146">
        <ele>425</ele>
        <time>2018-04-29T11:23:03.000Z</time>
      </trkpt>
      <trkpt lat="46.50686" lon="6.64114">
        <ele>424</ele>
        <time>2018-04-29T11:23:11.000Z</time>
      </trkpt>
      <trkpt lat="46.50697" lon="6.64084">
        <ele>423</ele>
        <time>2018-04-29T11:23:19.000Z</time>
      </trkpt>
      <trkpt lat="46.50708" lon="6.64063">
        <ele>424</ele>
        <time>2018-04-29T11:23:26.000Z</time>
      </trkpt>
      <trkpt lat="46.50724" lon="6.64041">
        <ele>427</ele>
        <time>2018-04-29T11:23:33.000Z</time>
      </trkpt>
      <trkpt lat="46.50735" lon="6.64017">
        <ele>429</ele>
        <time>2018-04-29T11:23:40.000Z</time>
      </trkpt>
      <trkpt lat="46.50751" lon="6.64001">
        <ele>431</ele>
        <time>2018-04-29T11:23:47.000Z</time>
      </trkpt>
      <trkpt lat="46.50764" lon="6.63979">
        <ele>431</ele>
        <time>2018-04-29T11:23:56.000Z</time>
      </trkpt>
      <trkpt lat="46.50778" lon="6.63955">
        <ele>431</ele>
        <time>2018-04-29T11:24:04.000Z</time>
      </trkpt>
      <trkpt lat="46.50791" lon="6.6393">
        <ele>432</ele>
        <time>2018-04-29T11:24:12.000Z</time>
      </trkpt>
      <trkpt lat="46.50796" lon="6.63902">
        <ele>433</ele>
        <time>2018-04-29T11:24:21.000Z</time>
      </trkpt>
      <trkpt lat="46.50804" lon="6.63876">
        <ele>435</ele>
        <time>2018-04-29T11:24:29.000Z</time>
      </trkpt>
      <trkpt lat="46.50814" lon="6.63851">
        <ele>434</ele>
        <time>2018-04-29T11:24:38.000Z</time>
      </trkpt>
      <trkpt lat="46.5082" lon="6.63823">
        <ele>431</ele>
        <time>2018-04-29T11:24:45.000Z</time>
      </trkpt>
      <trkpt lat="46.5083" lon="6.63797">
        <ele>434</ele>
        <time>2018-04-29T11:24:53.000Z</time>
      </trkpt>
      <trkpt lat="46.50842" lon="6.63777">
        <ele>436</ele>
        <time>2018-04-29T11:25:00.000Z</time>
      </trkpt>
      <trkpt lat="46.50854" lon="6.63755">
        <ele>437</ele>
        <time>2018-04-29T11:25:07.000Z</time>
      </trkpt>
      <trkpt lat="46.50868" lon="6.63735">
        <ele>438</ele>
        <time>2018-04-29T11:25:15.000Z</time>
      </trkpt>
      <trkpt lat="46.5088" lon="6.63713">
        <ele>441</ele>
        <time>2018-04-29T11:25:23.000Z</time>
      </trkpt>
      <trkpt lat="46.50889" lon="6.63684">
        <ele>442</ele>
        <time>2018-04-29T11:25:30.000Z</time>
      </trkpt>
      <trkpt lat="46.50893" lon="6.63655">
        <ele>443</ele>
        <time>2018-04-29T11:25:37.000Z</time>
      </trkpt>
      <trkpt lat="46.50903" lon="6.6363">
        <ele>443</ele>
        <time>2018-04-29T11:25:45.000Z</time>
      </trkpt>
      <trkpt lat="46.50911" lon="6.63606">
        <ele>442</ele>
        <time>2018-04-29T11:25:52.000Z</time>
      </trkpt>
      <trkpt lat="46.50926" lon="6.63591">
        <ele>445</ele>
        <time>2018-04-29T11:25:59.000Z</time>
      </trkpt>
      <trkpt lat="46.50938" lon="6.63565">
        <ele>449</ele>
        <time>2018-04-29T11:26:05.000Z</time>
      </trkpt>
      <trkpt lat="46.50947" lon="6.63538">
        <ele>445</ele>
        <time>2018-04-29T11:26:13.000Z</time>
      </trkpt>
      <trkpt lat="46.50957" lon="6.63509">
        <ele>444</ele>
        <time>2018-04-29T11:26:21.000Z</time>
      </trkpt>
      <trkpt lat="46.50972" lon="6.63485">
        <ele>446</ele>
        <time>2018-04-29T11:26:29.000Z</time>
      </trkpt>
      <trkpt lat="46.50983" lon="6.63461">
        <ele>448</ele>
        <time>2018-04-29T11:26:36.000Z</time>
      </trkpt>
      <trkpt lat="46.50996" lon="6.63438">
        <ele>447</ele>
        <time>2018-04-29T11:26:43.000Z</time>
      </trkpt>
      <trkpt lat="46.51009" lon="6.63413">
        <ele>447</ele>
        <time>2018-04-29T11:26:50.000Z</time>
      </trkpt>
      <trkpt lat="46.51027" lon="6.63396">
        <ele>448</ele>
        <time>2018-04-29T11:26:57.000Z</time>
      </trkpt>
      <trkpt lat="46.51032" lon="6.63364">
        <ele>449</ele>
        <time>2018-04-29T11:27:04.000Z</time>
      </trkpt>
      <trkpt lat="46.51044" lon="6.63337">
        <ele>450</ele>
        <time>2018-04-29T11:27:12.000Z</time>
      </trkpt>
      <trkpt lat="46.51057" lon="6.63311">
        <ele>450</ele>
        <time>2018-04-29T11:27:20.000Z</time>
      </trkpt>
      <trkpt lat="46.51069" lon="6.63283">
        <ele>448</ele>
        <time>2018-04-29T11:27:28.000Z</time>
      </trkpt>
      <trkpt lat="46.51074" lon="6.63254">
        <ele>448</ele>
        <time>2018-04-29T11:27:36.000Z</time>
      </trkpt>
      <trkpt lat="46.51084" lon="6.63226">
        <ele>450</ele>
        <time>2018-04-29T11:27:44.000Z</time>
      </trkpt>
      <trkpt lat="46.51091" lon="6.63198">
        <ele>448</ele>
        <time>2018-04-29T11:27:51.000Z</time>
      </trkpt>
      <trkpt lat="46.51101" lon="6.63167">
        <ele>449</ele>
        <time>2018-04-29T11:27:58.000Z</time>
      </trkpt>
      <trkpt lat="46.51111" lon="6.6314">
        <ele>449</ele>
        <time>2018-04-29T11:28:06.000Z</time>
      </trkpt>
      <trkpt lat="46.51121" lon="6.63114">
        <ele>449</ele>
        <time>2018-04-29T11:28:13.000Z</time>
      </trkpt>
      <trkpt lat="46.51128" lon="6.63096">
        <ele>450</ele>
        <time>2018-04-29T11:28:17.000Z</time>
      </trkpt>
      <trkpt lat="46.51124" lon="6.63075">
        <ele>451</ele>
        <time>2018-04-29T11:28:21.000Z</time>
      </trkpt>
      <trkpt lat="46.51133" lon="6.63047">
        <ele>448</ele>
        <time>2018-04-29T11:28:28.000Z</time>
      </trkpt>
      <trkpt lat="46.51141" lon="6.63016">
        <ele>446</ele>
        <time>2018-04-29T11:28:35.000Z</time>
      </trkpt>
      <trkpt lat="46.51152" lon="6.62988">
        <ele>447</ele>
        <time>2018-04-29T11:28:41.000Z</time>
      </trkpt>
      <trkpt lat="46.51162" lon="6.62958">
        <ele>447</ele>
        <time>2018-04-29T11:28:48.000Z</time>
      </trkpt>
      <trkpt lat="46.51169" lon="6.62928">
        <ele>447</ele>
        <time>2018-04-29T11:28:55.000Z</time>
      </trkpt>
      <trkpt lat="46.51177" lon="6.62896">
        <ele>446</ele>
        <time>2018-04-29T11:29:02.000Z</time>
      </trkpt>
      <trkpt lat="46.51185" lon="6.62866">
        <ele>445</ele>
        <time>2018-04-29T11:29:09.000Z</time>
      </trkpt>
      <trkpt lat="46.51193" lon="6.62839">
        <ele>446</ele>
        <time>2018-04-29T11:29:16.000Z</time>
      </trkpt>
      <trkpt lat="46.51197" lon="6.6281">
        <ele>446</ele>
        <time>2018-04-29T11:29:23.000Z</time>
      </trkpt>
      <trkpt lat="46.51203" lon="6.62781">
        <ele>445</ele>
        <time>2018-04-29T11:29:30.000Z</time>
      </trkpt>
      <trkpt lat="46.51208" lon="6.62753">
        <ele>444</ele>
        <time>2018-04-29T11:29:36.000Z</time>
      </trkpt>
      <trkpt lat="46.51212" lon="6.62723">
        <ele>444</ele>
        <time>2018-04-29T11:29:43.000Z</time>
      </trkpt>
      <trkpt lat="46.51217" lon="6.62693">
        <ele>442</ele>
        <time>2018-04-29T11:29:49.000Z</time>
      </trkpt>
      <trkpt lat="46.51225" lon="6.6267">
        <ele>441</ele>
        <time>2018-04-29T11:29:56.000Z</time>
      </trkpt>
      <trkpt lat="46.51225" lon="6.62648">
        <ele>440</ele>
        <time>2018-04-29T11:30:01.000Z</time>
      </trkpt>
      <trkpt lat="46.51229" lon="6.62633">
        <ele>440</ele>
        <time>2018-04-29T11:30:06.000Z</time>
      </trkpt>
      <trkpt lat="46.51233" lon="6.62605">
        <ele>440</ele>
        <time>2018-04-29T11:30:10.000Z</time>
      </trkpt>
      <trkpt lat="46.51233" lon="6.62577">
        <ele>439</ele>
        <time>2018-04-29T11:30:16.000Z</time>
      </trkpt>
      <trkpt lat="46.51228" lon="6.62532">
        <ele>439</ele>
        <time>2018-04-29T11:30:23.000Z</time>
      </trkpt>
      <trkpt lat="46.51231" lon="6.62503">
        <ele>439</ele>
        <time>2018-04-29T11:30:29.000Z</time>
      </trkpt>
      <trkpt lat="46.51239" lon="6.62473">
        <ele>438</ele>
        <time>2018-04-29T11:30:36.000Z</time>
      </trkpt>
      <trkpt lat="46.51245" lon="6.62451">
        <ele>437</ele>
        <time>2018-04-29T11:30:44.000Z</time>
      </trkpt>
      <trkpt lat="46.5125" lon="6.62422">
        <ele>440</ele>
        <time>2018-04-29T11:30:51.000Z</time>
      </trkpt>
      <trkpt lat="46.51256" lon="6.62397">
        <ele>438</ele>
        <time>2018-04-29T11:31:00.000Z</time>
      </trkpt>
      <trkpt lat="46.51265" lon="6.62377">
        <ele>434</ele>
        <time>2018-04-29T11:31:05.000Z</time>
      </trkpt>
      <trkpt lat="46.51266" lon="6.62356">
        <ele>440</ele>
        <time>2018-04-29T11:31:10.000Z</time>
      </trkpt>
      <trkpt lat="46.51265" lon="6.62342">
        <ele>444</ele>
        <time>2018-04-29T11:31:14.000Z</time>
      </trkpt>
      <trkpt lat="46.51266" lon="6.62329">
        <ele>446</ele>
        <time>2018-04-29T11:31:17.000Z</time>
      </trkpt>
      <trkpt lat="46.51268" lon="6.62309">
        <ele>447</ele>
        <time>2018-04-29T11:31:20.000Z</time>
      </trkpt>
      <trkpt lat="46.51274" lon="6.62281">
        <ele>447</ele>
        <time>2018-04-29T11:31:25.000Z</time>
      </trkpt>
      <trkpt lat="46.51285" lon="6.62253">
        <ele>449</ele>
        <time>2018-04-29T11:31:33.000Z</time>
      </trkpt>
      <trkpt lat="46.51296" lon="6.62225">
        <ele>451</ele>
        <time>2018-04-29T11:31:40.000Z</time>
      </trkpt>
      <trkpt lat="46.51308" lon="6.62203">
        <ele>449</ele>
        <time>2018-04-29T11:31:48.000Z</time>
      </trkpt>
      <trkpt lat="46.51315" lon="6.62175">
        <ele>449</ele>
        <time>2018-04-29T11:31:56.000Z</time>
      </trkpt>
      <trkpt lat="46.51324" lon="6.62149">
        <ele>450</ele>
        <time>2018-04-29T11:32:02.000Z</time>
      </trkpt>
      <trkpt lat="46.51339" lon="6.62128">
        <ele>452</ele>
        <time>2018-04-29T11:32:09.000Z</time>
      </trkpt>
      <trkpt lat="46.51359" lon="6.62111">
        <ele>455</ele>
        <time>2018-04-29T11:32:17.000Z</time>
      </trkpt>
      <trkpt lat="46.51377" lon="6.62095">
        <ele>455</ele>
        <time>2018-04-29T11:32:23.000Z</time>
      </trkpt>
      <trkpt lat="46.5139" lon="6.62074">
        <ele>454</ele>
        <time>2018-04-29T11:32:31.000Z</time>
      </trkpt>
      <trkpt lat="46.51401" lon="6.62054">
        <ele>455</ele>
        <time>2018-04-29T11:32:38.000Z</time>
      </trkpt>
      <trkpt lat="46.51416" lon="6.62039">
        <ele>455</ele>
        <time>2018-04-29T11:32:45.000Z</time>
      </trkpt>
      <trkpt lat="46.51429" lon="6.62016">
        <ele>456</ele>
        <time>2018-04-29T11:32:53.000Z</time>
      </trkpt>
      <trkpt lat="46.51442" lon="6.61994">
        <ele>458</ele>
        <time>2018-04-29T11:32:59.000Z</time>
      </trkpt>
      <trkpt lat="46.51455" lon="6.61969">
        <ele>455</ele>
        <time>2018-04-29T11:33:05.000Z</time>
      </trkpt>
      <trkpt lat="46.51468" lon="6.61945">
        <ele>454</ele>
        <time>2018-04-29T11:33:11.000Z</time>
      </trkpt>
      <trkpt lat="46.51482" lon="6.6192">
        <ele>455</ele>
        <time>2018-04-29T11:33:18.000Z</time>
      </trkpt>
      <trkpt lat="46.51497" lon="6.619">
        <ele>459</ele>
        <time>2018-04-29T11:33:25.000Z</time>
      </trkpt>
      <trkpt lat="46.51506" lon="6.61874">
        <ele>457</ele>
        <time>2018-04-29T11:33:32.000Z</time>
      </trkpt>
      <trkpt lat="46.51514" lon="6.61862">
        <ele>455</ele>
        <time>2018-04-29T11:33:39.000Z</time>
      </trkpt>
      <trkpt lat="46.51521" lon="6.61847">
        <ele>455</ele>
        <time>2018-04-29T11:33:43.000Z</time>
      </trkpt>
      <trkpt lat="46.51533" lon="6.6183">
        <ele>456</ele>
        <time>2018-04-29T11:33:47.000Z</time>
      </trkpt>
      <trkpt lat="46.51544" lon="6.6181">
        <ele>456</ele>
        <time>2018-04-29T11:33:52.000Z</time>
      </trkpt>
      <trkpt lat="46.51551" lon="6.61783">
        <ele>454</ele>
        <time>2018-04-29T11:33:58.000Z</time>
      </trkpt>
      <trkpt lat="46.51561" lon="6.61759">
        <ele>453</ele>
        <time>2018-04-29T11:34:06.000Z</time>
      </trkpt>
      <trkpt lat="46.5157" lon="6.61734">
        <ele>452</ele>
        <time>2018-04-29T11:34:12.000Z</time>
      </trkpt>
      <trkpt lat="46.51575" lon="6.61707">
        <ele>452</ele>
        <time>2018-04-29T11:34:19.000Z</time>
      </trkpt>
      <trkpt lat="46.51576" lon="6.61677">
        <ele>454</ele>
        <time>2018-04-29T11:34:25.000Z</time>
      </trkpt>
      <trkpt lat="46.51578" lon="6.61646">
        <ele>454</ele>
        <time>2018-04-29T11:34:31.000Z</time>
      </trkpt>
      <trkpt lat="46.51577" lon="6.61612">
        <ele>453</ele>
        <time>2018-04-29T11:34:38.000Z</time>
      </trkpt>
      <trkpt lat="46.51578" lon="6.61579">
        <ele>453</ele>
        <time>2018-04-29T11:34:45.000Z</time>
      </trkpt>
      <trkpt lat="46.51579" lon="6.61551">
        <ele>452</ele>
        <time>2018-04-29T11:34:51.000Z</time>
      </trkpt>
      <trkpt lat="46.51581" lon="6.61522">
        <ele>453</ele>
        <time>2018-04-29T11:34:57.000Z</time>
      </trkpt>
      <trkpt lat="46.51584" lon="6.61493">
        <ele>456</ele>
        <time>2018-04-29T11:35:03.000Z</time>
      </trkpt>
      <trkpt lat="46.51593" lon="6.61467">
        <ele>456</ele>
        <time>2018-04-29T11:35:10.000Z</time>
      </trkpt>
      <trkpt lat="46.51603" lon="6.61442">
        <ele>453</ele>
        <time>2018-04-29T11:35:17.000Z</time>
      </trkpt>
      <trkpt lat="46.51608" lon="6.61414">
        <ele>453</ele>
        <time>2018-04-29T11:35:24.000Z</time>
      </trkpt>
      <trkpt lat="46.51614" lon="6.61385">
        <ele>453</ele>
        <time>2018-04-29T11:35:30.000Z</time>
      </trkpt>
      <trkpt lat="46.51625" lon="6.61362">
        <ele>453</ele>
        <time>2018-04-29T11:35:37.000Z</time>
      </trkpt>
      <trkpt lat="46.51632" lon="6.61337">
        <ele>455</ele>
        <time>2018-04-29T11:35:43.000Z</time>
      </trkpt>
      <trkpt lat="46.51635" lon="6.61315">
        <ele>452</ele>
        <time>2018-04-29T11:35:50.000Z</time>
      </trkpt>
      <trkpt lat="46.51635" lon="6.61292">
        <ele>451</ele>
        <time>2018-04-29T11:35:54.000Z</time>
      </trkpt>
      <trkpt lat="46.5164" lon="6.61265">
        <ele>448</ele>
        <time>2018-04-29T11:36:00.000Z</time>
      </trkpt>
      <trkpt lat="46.51648" lon="6.6124">
        <ele>448</ele>
        <time>2018-04-29T11:36:06.000Z</time>
      </trkpt>
      <trkpt lat="46.51663" lon="6.61223">
        <ele>448</ele>
        <time>2018-04-29T11:36:12.000Z</time>
      </trkpt>
      <trkpt lat="46.51675" lon="6.61201">
        <ele>449</ele>
        <time>2018-04-29T11:36:19.000Z</time>
      </trkpt>
      <trkpt lat="46.51682" lon="6.61173">
        <ele>449</ele>
        <time>2018-04-29T11:36:26.000Z</time>
      </trkpt>
      <trkpt lat="46.51689" lon="6.61145">
        <ele>449</ele>
        <time>2018-04-29T11:36:33.000Z</time>
      </trkpt>
      <trkpt lat="46.51692" lon="6.61114">
        <ele>450</ele>
        <time>2018-04-29T11:36:39.000Z</time>
      </trkpt>
      <trkpt lat="46.51692" lon="6.61086">
        <ele>450</ele>
        <time>2018-04-29T11:36:45.000Z</time>
      </trkpt>
      <trkpt lat="46.51704" lon="6.61059">
        <ele>447</ele>
        <time>2018-04-29T11:36:52.000Z</time>
      </trkpt>
      <trkpt lat="46.51716" lon="6.61035">
        <ele>449</ele>
        <time>2018-04-29T11:36:59.000Z</time>
      </trkpt>
      <trkpt lat="46.5172" lon="6.6101">
        <ele>451</ele>
        <time>2018-04-29T11:37:05.000Z</time>
      </trkpt>
      <trkpt lat="46.51735" lon="6.6099">
        <ele>454</ele>
        <time>2018-04-29T11:37:12.000Z</time>
      </trkpt>
      <trkpt lat="46.51748" lon="6.6097">
        <ele>453</ele>
        <time>2018-04-29T11:37:19.000Z</time>
      </trkpt>
      <trkpt lat="46.51761" lon="6.60949">
        <ele>454</ele>
        <time>2018-04-29T11:37:27.000Z</time>
      </trkpt>
      <trkpt lat="46.51777" lon="6.60936">
        <ele>454</ele>
        <time>2018-04-29T11:37:33.000Z</time>
      </trkpt>
      <trkpt lat="46.51791" lon="6.60917">
        <ele>456</ele>
        <time>2018-04-29T11:37:39.000Z</time>
      </trkpt>
      <trkpt lat="46.51802" lon="6.60887">
        <ele>459</ele>
        <time>2018-04-29T11:37:47.000Z</time>
      </trkpt>
      <trkpt lat="46.51816" lon="6.60866">
        <ele>460</ele>
        <time>2018-04-29T11:37:55.000Z</time>
      </trkpt>
      <trkpt lat="46.51833" lon="6.60852">
        <ele>461</ele>
        <time>2018-04-29T11:38:02.000Z</time>
      </trkpt>
      <trkpt lat="46.51851" lon="6.60842">
        <ele>461</ele>
        <time>2018-04-29T11:38:08.000Z</time>
      </trkpt>
      <trkpt lat="46.51865" lon="6.6082">
        <ele>461</ele>
        <time>2018-04-29T11:38:15.000Z</time>
      </trkpt>
      <trkpt lat="46.51884" lon="6.60834">
        <ele>463</ele>
        <time>2018-04-29T11:38:25.000Z</time>
      </trkpt>
      <trkpt lat="46.51899" lon="6.60863">
        <ele>466</ele>
        <time>2018-04-29T11:38:34.000Z</time>
      </trkpt>
      <trkpt lat="46.51913" lon="6.6088">
        <ele>467</ele>
        <time>2018-04-29T11:38:42.000Z</time>
      </trkpt>
      <trkpt lat="46.51925" lon="6.60878">
        <ele>468</ele>
        <time>2018-04-29T11:38:45.000Z</time>
      </trkpt>
      <trkpt lat="46.51931" lon="6.60867">
        <ele>467</ele>
        <time>2018-04-29T11:38:49.000Z</time>
      </trkpt>
      <trkpt lat="46.51937" lon="6.60844">
        <ele>467</ele>
        <time>2018-04-29T11:38:57.000Z</time>
      </trkpt>
      <trkpt lat="46.51943" lon="6.60819">
        <ele>469</ele>
        <time>2018-04-29T11:39:03.000Z</time>
      </trkpt>
      <trkpt lat="46.51957" lon="6.608">
        <ele>469</ele>
        <time>2018-04-29T11:39:09.000Z</time>
      </trkpt>
      <trkpt lat="46.51972" lon="6.60786">
        <ele>468</ele>
        <time>2018-04-29T11:39:15.000Z</time>
      </trkpt>
      <trkpt lat="46.51979" lon="6.60764">
        <ele>466</ele>
        <time>2018-04-29T11:39:21.000Z</time>
      </trkpt>
      <trkpt lat="46.51985" lon="6.60737">
        <ele>467</ele>
        <time>2018-04-29T11:39:27.000Z</time>
      </trkpt>
      <trkpt lat="46.51992" lon="6.60708">
        <ele>466</ele>
        <time>2018-04-29T11:39:34.000Z</time>
      </trkpt>
      <trkpt lat="46.52002" lon="6.60683">
        <ele>466</ele>
        <time>2018-04-29T11:39:42.000Z</time>
      </trkpt>
      <trkpt lat="46.52012" lon="6.6066">
        <ele>468</ele>
        <time>2018-04-29T11:39:50.000Z</time>
      </trkpt>
      <trkpt lat="46.52023" lon="6.60639">
        <ele>468</ele>
        <time>2018-04-29T11:39:58.000Z</time>
      </trkpt>
      <trkpt lat="46.52025" lon="6.60613">
        <ele>468</ele>
        <time>2018-04-29T11:40:04.000Z</time>
      </trkpt>
      <trkpt lat="46.52041" lon="6.60596">
        <ele>468</ele>
        <time>2018-04-29T11:40:18.000Z</time>
      </trkpt>
      <trkpt lat="46.52059" lon="6.60595">
        <ele>468</ele>
        <time>2018-04-29T11:40:23.000Z</time>
      </trkpt>
      <trkpt lat="46.52079" lon="6.60592">
        <ele>469</ele>
        <time>2018-04-29T11:40:28.000Z</time>
      </trkpt>
      <trkpt lat="46.5209" lon="6.6059">
        <ele>469</ele>
        <time>2018-04-29T11:40:32.000Z</time>
      </trkpt>
      <trkpt lat="46.52087" lon="6.60569">
        <ele>468</ele>
        <time>2018-04-29T11:40:38.000Z</time>
      </trkpt>
      <trkpt lat="46.52069" lon="6.60559">
        <ele>468</ele>
        <time>2018-04-29T11:40:46.000Z</time>
      </trkpt>
      <trkpt lat="46.52048" lon="6.6055">
        <ele>468</ele>
        <time>2018-04-29T11:40:52.000Z</time>
      </trkpt>
      <trkpt lat="46.52029" lon="6.60531">
        <ele>466</ele>
        <time>2018-04-29T11:40:58.000Z</time>
      </trkpt>
      <trkpt lat="46.5201" lon="6.60499">
        <ele>463</ele>
        <time>2018-04-29T11:41:08.000Z</time>
      </trkpt>
      <trkpt lat="46.51989" lon="6.6049">
        <ele>467</ele>
        <time>2018-04-29T11:41:12.000Z</time>
      </trkpt>
      <trkpt lat="46.51966" lon="6.60481">
        <ele>468</ele>
        <time>2018-04-29T11:41:17.000Z</time>
      </trkpt>
      <trkpt lat="46.51947" lon="6.60467">
        <ele>463</ele>
        <time>2018-04-29T11:41:26.000Z</time>
      </trkpt>
      <trkpt lat="46.51931" lon="6.60443">
        <ele>461</ele>
        <time>2018-04-29T11:41:32.000Z</time>
      </trkpt>
      <trkpt lat="46.51912" lon="6.60423">
        <ele>460</ele>
        <time>2018-04-29T11:41:39.000Z</time>
      </trkpt>
      <trkpt lat="46.51891" lon="6.60412">
        <ele>459</ele>
        <time>2018-04-29T11:41:46.000Z</time>
      </trkpt>
      <trkpt lat="46.51874" lon="6.60423">
        <ele>455</ele>
        <time>2018-04-29T11:41:52.000Z</time>
      </trkpt>
      <trkpt lat="46.51854" lon="6.60432">
        <ele>455</ele>
        <time>2018-04-29T11:41:58.000Z</time>
      </trkpt>
      <trkpt lat="46.51836" lon="6.6042">
        <ele>453</ele>
        <time>2018-04-29T11:42:05.000Z</time>
      </trkpt>
      <trkpt lat="46.51828" lon="6.60392">
        <ele>449</ele>
        <time>2018-04-29T11:42:13.000Z</time>
      </trkpt>
      <trkpt lat="46.51826" lon="6.60382">
        <ele>447</ele>
        <time>2018-04-29T11:42:19.000Z</time>
      </trkpt>
      <trkpt lat="46.51825" lon="6.60374">
        <ele>446</ele>
        <time>2018-04-29T11:42:21.000Z</time>
      </trkpt>
      <trkpt lat="46.51826" lon="6.60349">
        <ele>439</ele>
        <time>2018-04-29T11:42:24.000Z</time>
      </trkpt>
      <trkpt lat="46.51812" lon="6.60336">
        <ele>438</ele>
        <time>2018-04-29T11:42:31.000Z</time>
      </trkpt>
      <trkpt lat="46.51791" lon="6.60334">
        <ele>438</ele>
        <time>2018-04-29T11:42:36.000Z</time>
      </trkpt>
      <trkpt lat="46.5178" lon="6.60331">
        <ele>437</ele>
        <time>2018-04-29T11:42:42.000Z</time>
      </trkpt>
      <trkpt lat="46.51751" lon="6.60331">
        <ele>436</ele>
        <time>2018-04-29T11:42:48.000Z</time>
      </trkpt>
      <trkpt lat="46.51733" lon="6.60328">
        <ele>436</ele>
        <time>2018-04-29T11:42:54.000Z</time>
      </trkpt>
      <trkpt lat="46.51714" lon="6.60336">
        <ele>431</ele>
        <time>2018-04-29T11:43:01.000Z</time>
      </trkpt>
      <trkpt lat="46.5169" lon="6.60358">
        <ele>427</ele>
        <time>2018-04-29T11:43:12.000Z</time>
      </trkpt>
      <trkpt lat="46.51671" lon="6.60373">
        <ele>425</ele>
        <time>2018-04-29T11:43:18.000Z</time>
      </trkpt>
      <trkpt lat="46.5165" lon="6.60381">
        <ele>423</ele>
        <time>2018-04-29T11:43:25.000Z</time>
      </trkpt>
      <trkpt lat="46.5162" lon="6.6038">
        <ele>421</ele>
        <time>2018-04-29T11:43:36.000Z</time>
      </trkpt>
      <trkpt lat="46.51612" lon="6.60382">
        <ele>420</ele>
        <time>2018-04-29T11:43:38.000Z</time>
      </trkpt>
      <trkpt lat="46.51604" lon="6.60395">
        <ele>423</ele>
        <time>2018-04-29T11:43:41.000Z</time>
      </trkpt>
      <trkpt lat="46.51596" lon="6.60403">
        <ele>421</ele>
        <time>2018-04-29T11:43:45.000Z</time>
      </trkpt>
      <trkpt lat="46.51582" lon="6.60413">
        <ele>421</ele>
        <time>2018-04-29T11:43:48.000Z</time>
      </trkpt>
      <trkpt lat="46.51563" lon="6.60423">
        <ele>421</ele>
        <time>2018-04-29T11:43:53.000Z</time>
      </trkpt>
      <trkpt lat="46.51543" lon="6.60433">
        <ele>423</ele>
        <time>2018-04-29T11:44:00.000Z</time>
      </trkpt>
      <trkpt lat="46.5153" lon="6.60436">
        <ele>423</ele>
        <time>2018-04-29T11:44:06.000Z</time>
      </trkpt>
      <trkpt lat="46.51521" lon="6.60422">
        <ele>423</ele>
        <time>2018-04-29T11:44:11.000Z</time>
      </trkpt>
      <trkpt lat="46.51529" lon="6.60403">
        <ele>420</ele>
        <time>2018-04-29T11:44:18.000Z</time>
      </trkpt>
      <trkpt lat="46.51534" lon="6.6038">
        <ele>421</ele>
        <time>2018-04-29T11:44:23.000Z</time>
      </trkpt>
      <trkpt lat="46.5154" lon="6.60356">
        <ele>422</ele>
        <time>2018-04-29T11:44:28.000Z</time>
      </trkpt>
      <trkpt lat="46.51539" lon="6.60322">
        <ele>421</ele>
        <time>2018-04-29T11:44:33.000Z</time>
      </trkpt>
      <trkpt lat="46.51535" lon="6.60295">
        <ele>420</ele>
        <time>2018-04-29T11:44:41.000Z</time>
      </trkpt>
      <trkpt lat="46.51534" lon="6.60264">
        <ele>418</ele>
        <time>2018-04-29T11:44:49.000Z</time>
      </trkpt>
      <trkpt lat="46.5154" lon="6.60237">
        <ele>418</ele>
        <time>2018-04-29T11:44:57.000Z</time>
      </trkpt>
      <trkpt lat="46.51572" lon="6.6024">
        <ele>420</ele>
        <time>2018-04-29T11:45:08.000Z</time>
      </trkpt>
      <trkpt lat="46.51592" lon="6.60251">
        <ele>424</ele>
        <time>2018-04-29T11:45:14.000Z</time>
      </trkpt>
      <trkpt lat="46.51611" lon="6.6026">
        <ele>424</ele>
        <time>2018-04-29T11:45:21.000Z</time>
      </trkpt>
      <trkpt lat="46.51632" lon="6.60257">
        <ele>425</ele>
        <time>2018-04-29T11:45:28.000Z</time>
      </trkpt>
      <trkpt lat="46.51651" lon="6.60246">
        <ele>426</ele>
        <time>2018-04-29T11:45:36.000Z</time>
      </trkpt>
      <trkpt lat="46.51669" lon="6.60234">
        <ele>424</ele>
        <time>2018-04-29T11:45:43.000Z</time>
      </trkpt>
      <trkpt lat="46.51682" lon="6.60212">
        <ele>421</ele>
        <time>2018-04-29T11:45:50.000Z</time>
      </trkpt>
      <trkpt lat="46.51695" lon="6.60189">
        <ele>422</ele>
        <time>2018-04-29T11:45:58.000Z</time>
      </trkpt>
      <trkpt lat="46.51704" lon="6.60166">
        <ele>423</ele>
        <time>2018-04-29T11:46:05.000Z</time>
      </trkpt>
      <trkpt lat="46.51712" lon="6.60141">
        <ele>425</ele>
        <time>2018-04-29T11:46:12.000Z</time>
      </trkpt>
      <trkpt lat="46.51721" lon="6.60116">
        <ele>427</ele>
        <time>2018-04-29T11:46:19.000Z</time>
      </trkpt>
      <trkpt lat="46.51727" lon="6.60088">
        <ele>424</ele>
        <time>2018-04-29T11:46:26.000Z</time>
      </trkpt>
      <trkpt lat="46.51731" lon="6.60059">
        <ele>427</ele>
        <time>2018-04-29T11:46:35.000Z</time>
      </trkpt>
      <trkpt lat="46.51735" lon="6.60027">
        <ele>425</ele>
        <time>2018-04-29T11:46:43.000Z</time>
      </trkpt>
      <trkpt lat="46.51737" lon="6.59997">
        <ele>419</ele>
        <time>2018-04-29T11:46:50.000Z</time>
      </trkpt>
      <trkpt lat="46.51744" lon="6.59967">
        <ele>419</ele>
        <time>2018-04-29T11:46:57.000Z</time>
      </trkpt>
      <trkpt lat="46.51749" lon="6.59939">
        <ele>419</ele>
        <time>2018-04-29T11:47:04.000Z</time>
      </trkpt>
      <trkpt lat="46.51754" lon="6.59908">
        <ele>417</ele>
        <time>2018-04-29T11:47:11.000Z</time>
      </trkpt>
      <trkpt lat="46.5176" lon="6.5988">
        <ele>414</ele>
        <time>2018-04-29T11:47:18.000Z</time>
      </trkpt>
      <trkpt lat="46.51768" lon="6.59852">
        <ele>413</ele>
        <time>2018-04-29T11:47:26.000Z</time>
      </trkpt>
      <trkpt lat="46.51777" lon="6.5982">
        <ele>412</ele>
        <time>2018-04-29T11:47:34.000Z</time>
      </trkpt>
      <trkpt lat="46.51772" lon="6.598">
        <ele>410</ele>
        <time>2018-04-29T11:47:39.000Z</time>
      </trkpt>
      <trkpt lat="46.51766" lon="6.59795">
        <ele>410</ele>
        <time>2018-04-29T11:47:42.000Z</time>
      </trkpt>
      <trkpt lat="46.51754" lon="6.5977">
        <ele>411</ele>
        <time>2018-04-29T11:47:49.000Z</time>
      </trkpt>
      <trkpt lat="46.51746" lon="6.59739">
        <ele>410</ele>
        <time>2018-04-29T11:47:56.000Z</time>
      </trkpt>
      <trkpt lat="46.51745" lon="6.59721">
        <ele>411</ele>
        <time>2018-04-29T11:48:00.000Z</time>
      </trkpt>
      <trkpt lat="46.5175" lon="6.59706">
        <ele>411</ele>
        <time>2018-04-29T11:48:04.000Z</time>
      </trkpt>
      <trkpt lat="46.51757" lon="6.59676">
        <ele>411</ele>
        <time>2018-04-29T11:48:12.000Z</time>
      </trkpt>
      <trkpt lat="46.51764" lon="6.5965">
        <ele>412</ele>
        <time>2018-04-29T11:48:19.000Z</time>
      </trkpt>
      <trkpt lat="46.51771" lon="6.59622">
        <ele>414</ele>
        <time>2018-04-29T11:48:26.000Z</time>
      </trkpt>
      <trkpt lat="46.51778" lon="6.59593">
        <ele>413</ele>
        <time>2018-04-29T11:48:34.000Z</time>
      </trkpt>
      <trkpt lat="46.51789" lon="6.59569">
        <ele>412</ele>
        <time>2018-04-29T11:48:42.000Z</time>
      </trkpt>
      <trkpt lat="46.51799" lon="6.59543">
        <ele>410</ele>
        <time>2018-04-29T11:48:49.000Z</time>
      </trkpt>
      <trkpt lat="46.51805" lon="6.5952">
        <ele>410</ele>
        <time>2018-04-29T11:48:57.000Z</time>
      </trkpt>
      <trkpt lat="46.51814" lon="6.59492">
        <ele>411</ele>
        <time>2018-04-29T11:49:03.000Z</time>
      </trkpt>
      <trkpt lat="46.51824" lon="6.59467">
        <ele>408</ele>
        <time>2018-04-29T11:49:09.000Z</time>
      </trkpt>
      <trkpt lat="46.51833" lon="6.59444">
        <ele>409</ele>
        <time>2018-04-29T11:49:17.000Z</time>
      </trkpt>
      <trkpt lat="46.51844" lon="6.5942">
        <ele>409</ele>
        <time>2018-04-29T11:49:24.000Z</time>
      </trkpt>
      <trkpt lat="46.51855" lon="6.59395">
        <ele>406</ele>
        <time>2018-04-29T11:49:31.000Z</time>
      </trkpt>
      <trkpt lat="46.51864" lon="6.5937">
        <ele>406</ele>
        <time>2018-04-29T11:49:38.000Z</time>
      </trkpt>
      <trkpt lat="46.5186" lon="6.59343">
        <ele>405</ele>
        <time>2018-04-29T11:49:46.000Z</time>
      </trkpt>
      <trkpt lat="46.51846" lon="6.59319">
        <ele>404</ele>
        <time>2018-04-29T11:49:52.000Z</time>
      </trkpt>
      <trkpt lat="46.51831" lon="6.59299">
        <ele>403</ele>
        <time>2018-04-29T11:49:58.000Z</time>
      </trkpt>
      <trkpt lat="46.51811" lon="6.59302">
        <ele>402</ele>
        <time>2018-04-29T11:50:05.000Z</time>
      </trkpt>
      <trkpt lat="46.51792" lon="6.59311">
        <ele>403</ele>
        <time>2018-04-29T11:50:12.000Z</time>
      </trkpt>
      <trkpt lat="46.51777" lon="6.59328">
        <ele>407</ele>
        <time>2018-04-29T11:50:20.000Z</time>
      </trkpt>
      <trkpt lat="46.51762" lon="6.59347">
        <ele>409</ele>
        <time>2018-04-29T11:50:27.000Z</time>
      </trkpt>
      <trkpt lat="46.51755" lon="6.5937">
        <ele>413</ele>
        <time>2018-04-29T11:50:37.000Z</time>
      </trkpt>
      <trkpt lat="46.51759" lon="6.594">
        <ele>415</ele>
        <time>2018-04-29T11:50:43.000Z</time>
      </trkpt>
      <trkpt lat="46.51761" lon="6.59429">
        <ele>419</ele>
        <time>2018-04-29T11:50:50.000Z</time>
      </trkpt>
      <trkpt lat="46.51759" lon="6.59458">
        <ele>421</ele>
        <time>2018-04-29T11:50:59.000Z</time>
      </trkpt>
      <trkpt lat="46.51753" lon="6.59487">
        <ele>423</ele>
        <time>2018-04-29T11:51:06.000Z</time>
      </trkpt>
      <trkpt lat="46.51743" lon="6.59515">
        <ele>424</ele>
        <time>2018-04-29T11:51:13.000Z</time>
      </trkpt>
      <trkpt lat="46.51737" lon="6.59546">
        <ele>426</ele>
        <time>2018-04-29T11:51:20.000Z</time>
      </trkpt>
      <trkpt lat="46.51728" lon="6.59576">
        <ele>427</ele>
        <time>2018-04-29T11:51:28.000Z</time>
      </trkpt>
      <trkpt lat="46.51721" lon="6.59604">
        <ele>428</ele>
        <time>2018-04-29T11:51:35.000Z</time>
      </trkpt>
      <trkpt lat="46.51719" lon="6.59632">
        <ele>426</ele>
        <time>2018-04-29T11:51:42.000Z</time>
      </trkpt>
      <trkpt lat="46.5172" lon="6.59664">
        <ele>425</ele>
        <time>2018-04-29T11:51:50.000Z</time>
      </trkpt>
      <trkpt lat="46.51723" lon="6.59693">
        <ele>423</ele>
        <time>2018-04-29T11:51:58.000Z</time>
      </trkpt>
      <trkpt lat="46.51722" lon="6.59723">
        <ele>424</ele>
        <time>2018-04-29T11:52:06.000Z</time>
      </trkpt>
      <trkpt lat="46.51724" lon="6.59751">
        <ele>427</ele>
        <time>2018-04-29T11:52:13.000Z</time>
      </trkpt>
      <trkpt lat="46.51731" lon="6.59777">
        <ele>429</ele>
        <time>2018-04-29T11:52:21.000Z</time>
      </trkpt>
      <trkpt lat="46.51749" lon="6.59786">
        <ele>430</ele>
        <time>2018-04-29T11:52:28.000Z</time>
      </trkpt>
      <trkpt lat="46.51764" lon="6.59796">
        <ele>432</ele>
        <time>2018-04-29T11:52:36.000Z</time>
      </trkpt>
      <trkpt lat="46.51764" lon="6.59822">
        <ele>433</ele>
        <time>2018-04-29T11:52:43.000Z</time>
      </trkpt>
      <trkpt lat="46.51756" lon="6.59839">
        <ele>434</ele>
        <time>2018-04-29T11:52:50.000Z</time>
      </trkpt>
      <trkpt lat="46.5175" lon="6.59863">
        <ele>431</ele>
        <time>2018-04-29T11:52:55.000Z</time>
      </trkpt>
      <trkpt lat="46.51744" lon="6.5989">
        <ele>431</ele>
        <time>2018-04-29T11:53:03.000Z</time>
      </trkpt>
      <trkpt lat="46.51743" lon="6.59917">
        <ele>431</ele>
        <time>2018-04-29T11:53:10.000Z</time>
      </trkpt>
      <trkpt lat="46.5174" lon="6.59945">
        <ele>428</ele>
        <time>2018-04-29T11:53:16.000Z</time>
      </trkpt>
      <trkpt lat="46.51733" lon="6.59963">
        <ele>429</ele>
        <time>2018-04-29T11:53:20.000Z</time>
      </trkpt>
      <trkpt lat="46.51724" lon="6.59961">
        <ele>429</ele>
        <time>2018-04-29T11:53:26.000Z</time>
      </trkpt>
      <trkpt lat="46.51705" lon="6.59949">
        <ele>431</ele>
        <time>2018-04-29T11:53:31.000Z</time>
      </trkpt>
      <trkpt lat="46.5169" lon="6.59935">
        <ele>432</ele>
        <time>2018-04-29T11:53:37.000Z</time>
      </trkpt>
      <trkpt lat="46.51674" lon="6.59926">
        <ele>432</ele>
        <time>2018-04-29T11:53:43.000Z</time>
      </trkpt>
      <trkpt lat="46.51656" lon="6.59911">
        <ele>432</ele>
        <time>2018-04-29T11:53:49.000Z</time>
      </trkpt>
      <trkpt lat="46.51641" lon="6.59893">
        <ele>428</ele>
        <time>2018-04-29T11:53:58.000Z</time>
      </trkpt>
      <trkpt lat="46.51611" lon="6.59879">
        <ele>427</ele>
        <time>2018-04-29T11:54:05.000Z</time>
      </trkpt>
      <trkpt lat="46.51592" lon="6.5988">
        <ele>427</ele>
        <time>2018-04-29T11:54:10.000Z</time>
      </trkpt>
      <trkpt lat="46.51576" lon="6.59887">
        <ele>428</ele>
        <time>2018-04-29T11:54:18.000Z</time>
      </trkpt>
      <trkpt lat="46.51561" lon="6.59895">
        <ele>428</ele>
        <time>2018-04-29T11:54:23.000Z</time>
      </trkpt>
      <trkpt lat="46.51545" lon="6.59901">
        <ele>427</ele>
        <time>2018-04-29T11:54:27.000Z</time>
      </trkpt>
      <trkpt lat="46.51527" lon="6.59911">
        <ele>425</ele>
        <time>2018-04-29T11:54:33.000Z</time>
      </trkpt>
      <trkpt lat="46.5152" lon="6.5993">
        <ele>424</ele>
        <time>2018-04-29T11:54:38.000Z</time>
      </trkpt>
      <trkpt lat="46.51524" lon="6.59951">
        <ele>425</ele>
        <time>2018-04-29T11:54:44.000Z</time>
      </trkpt>
      <trkpt lat="46.51525" lon="6.59975">
        <ele>424</ele>
        <time>2018-04-29T11:54:48.000Z</time>
      </trkpt>
      <trkpt lat="46.51521" lon="6.6">
        <ele>423</ele>
        <time>2018-04-29T11:54:54.000Z</time>
      </trkpt>
      <trkpt lat="46.51516" lon="6.60031">
        <ele>426</ele>
        <time>2018-04-29T11:55:00.000Z</time>
      </trkpt>
      <trkpt lat="46.5151" lon="6.60055">
        <ele>431</ele>
        <time>2018-04-29T11:55:08.000Z</time>
      </trkpt>
      <trkpt lat="46.51507" lon="6.60088">
        <ele>435</ele>
        <time>2018-04-29T11:55:14.000Z</time>
      </trkpt>
      <trkpt lat="46.51503" lon="6.60116">
        <ele>440</ele>
        <time>2018-04-29T11:55:21.000Z</time>
      </trkpt>
      <trkpt lat="46.51482" lon="6.60114">
        <ele>443</ele>
        <time>2018-04-29T11:55:29.000Z</time>
      </trkpt>
      <trkpt lat="46.51463" lon="6.60111">
        <ele>440</ele>
        <time>2018-04-29T11:55:35.000Z</time>
      </trkpt>
      <trkpt lat="46.51443" lon="6.60102">
        <ele>433</ele>
        <time>2018-04-29T11:55:42.000Z</time>
      </trkpt>
      <trkpt lat="46.51421" lon="6.60093">
        <ele>427</ele>
        <time>2018-04-29T11:55:49.000Z</time>
      </trkpt>
      <trkpt lat="46.51401" lon="6.60081">
        <ele>419</ele>
        <time>2018-04-29T11:55:57.000Z</time>
      </trkpt>
      <trkpt lat="46.51381" lon="6.60071">
        <ele>419</ele>
        <time>2018-04-29T11:56:04.000Z</time>
      </trkpt>
      <trkpt lat="46.5136" lon="6.60077">
        <ele>421</ele>
        <time>2018-04-29T11:56:10.000Z</time>
      </trkpt>
      <trkpt lat="46.51344" lon="6.60095">
        <ele>424</ele>
        <time>2018-04-29T11:56:17.000Z</time>
      </trkpt>
      <trkpt lat="46.51334" lon="6.60118">
        <ele>426</ele>
        <time>2018-04-29T11:56:23.000Z</time>
      </trkpt>
      <trkpt lat="46.51335" lon="6.60149">
        <ele>427</ele>
        <time>2018-04-29T11:56:29.000Z</time>
      </trkpt>
      <trkpt lat="46.51357" lon="6.60183">
        <ele>423</ele>
        <time>2018-04-29T11:56:37.000Z</time>
      </trkpt>
      <trkpt lat="46.51378" lon="6.60198">
        <ele>423</ele>
        <time>2018-04-29T11:56:43.000Z</time>
      </trkpt>
      <trkpt lat="46.51393" lon="6.60211">
        <ele>417</ele>
        <time>2018-04-29T11:56:52.000Z</time>
      </trkpt>
    </trkseg>
  </trk>
</gpx>